METAR Data
IDs: Format: Raw Decoded Include TAF

Data at: 1133 UTC 26 Sep 2018

PHTO 261053Z AUTO 16004KT 10SM CLR 26/23 A2987 RMK AO2 SLP112 T02560233 TSNO
PHTO 260953Z AUTO 18004KT 10SM CLR 26/23 A2988 RMK AO2 SLP116 T02560233 TSNO
PHTO 260853Z AUTO 17006KT 10SM CLR 26/23 A2989 RMK AO2 SLP120 T02610233 50001 TSNO
PHTO 260753Z 18005KT 10SM FEW041 SCT050 26/23 A2990 RMK AO2 SLP125 T02610233
PHTO 260653Z 00000KT 10SM SCT050 26/24 A2990 RMK AO2 SLP123 T02610239
PHTO 260553Z 13005KT 10SM BKN045 27/24 A2989 RMK AO2 SLP119 T02670239 10317 20256 53022
PHTO 260453Z 17004KT 10SM CLR 27/24 A2986 RMK AO2 SLP111 T02720239
PHTO 260353Z 15006KT 10SM CLR 28/24 A2984 RMK AO2 SLP103 T02830239
PHTO 260253Z 13009G18KT 10SM FEW027 29/24 A2982 RMK AO2 SLP097 T02940239 53001
PHTO 260226Z 12010KT 10SM SCT027 29/24 A2982 RMK AO2 T02940244
PHTO 260153Z COR 13013G20KT 10SM SCT029 31/25 A2981 RMK AO2 SLP093 T03060250
PHTO 260053Z 12015KT 10SM FEW021 SCT027 SCT034 30/25 A2980 RMK AO2 SLP091 T03000250 $
PHTO 260041Z 13014G20KT 10SM SCT021 BKN026 BKN034 30/24 A2980 RMK AO2 T03000244 $
PHTO 252353Z 13013G19KT 10SM SCT028 BKN036 31/25 A2982 RMK AO2 SLP096 T03110250 10317 20239 58025 $
PHTO 252253Z 12013KT 10SM FEW033 31/26 A2985 RMK AO2 SLP105 T03110261 $
PHTO 252153Z 13015KT 10SM FEW035 SCT050 31/25 A2987 RMK AO2 SLP114 T03110250 $
PHTO 252053Z 12015KT 10SM SCT040 31/24 A2989 RMK AO2 SLP121 T03060239 58007
PHTO 251953Z COR 15006KT 10SM FEW028 SCT045 BKN050 30/24 A2990 RMK AO2 SLP123 T03000244 PWINO TSNO
PHTO 251853Z AUTO VRB03KT 10SM BKN030 27/23 A2991 RMK AO2 SLP127 T02720228 PWINO TSNO $
PHTO 251753Z COR 18003KT 10SM FEW008 SCT018 BKN035 25/23 A2991 RMK AO2 SLP128 T02500228 PWINO TSNO $
PHTO 251723Z COR 18003KT 10SM FEW008 SCT018 BKN035 25/23 A2990 RMK AO2 T02500228 PWINO TSNO $
PHTO 251653Z 19003KT 10SM FEW015 SCT025 BKN050 23/22 A2988 RMK AO2 SLP114 T02280222 $
PHTO 251553Z 20004KT 10SM FEW050 24/22 A2987 RMK AO2 SLP111 T02390222 $
PHTO 250753Z 00000KT 8SM SCT019 BKN025 27/26 A2994 RMK AO2 SLP135 T02720261 $
PHTO 250653Z 21003KT 10SM BKN020 27/26 A2991 RMK AO2 SLP125 T02720261 $
PHTO 250603Z 21003KT 10SM BKN020 27/26 A2991 RMK AO2 T02720261 $
PHTO 250553Z A2990 RMK AO2 SLP125 6//// 51021 $
PHTO 250453Z 18003KT 10SM SCT030 BKN040 27/26 A2989 RMK AO2 SLP118 T02720261 $
PHTO 250353Z 13005KT 10SM FEW025 BKN040 27/25 A2986 RMK AO2 SLP110 T02720250 $
PHTO 250253Z 10010KT 10SM FEW040 SCT060 28/25 A2984 RMK AO2 SLP104 6//// T02780250 $
PHTO 250153Z 11010KT 10SM FEW040 SCT060 28/25 A2983 RMK AO2 SLP100 T02780250 PNO $
PHTO 250100Z AUTO -RA A2983 RMK AO2 TSNO PNO $
PHTO 250053Z AUTO 11014KT 8SM -RA FEW020 BKN028 27/26 A2983 RMK AO2 RAB53 SLP099 T02720261 TSNO PNO $
PHTO 242353Z SCT020 BKN045 OVC060 29/24 A2984 RMK AO2 SLP103 T02890244 $